Otis, Massachusetts
Current Conditions -  °F | °C
As of 4:53 PM on Thursday 18 Dec 2014 (Local Time) from KBAF Reporting Station
Overcast Overcast  
Wind Chill: 32°   Ceiling: 3000
Heat Index: 38°   Visibility: 10mi
Dew Point: 25°   Wind: 8mph
Humidity: 60%   Direction: 290°WNW
Pressure: 29.89"   Gusts: NA
Location:  42.19°N, 73.09°W
Report Text: KBAF 182153Z 29007KT 10SM OVC030 03/M04 A2989 RMK AO2 SLP125 T00331039
Loading
Personal Weather Stations






























Interactive Weather Map New forecast layout! Learn more

10-Day Weather Forecast

Advertisements
Track Severe Weather on mobile